createdAt,value
2022-09-28T00:01:49.295Z,2.38
2022-09-28T00:04:18.256Z,2.38
2022-09-28T00:06:47.392Z,2.72
2022-09-28T00:09:16.705Z,2.43
2022-09-28T00:11:46.178Z,2.88
2022-09-28T00:14:15.559Z,2.88
2022-09-28T00:16:45.045Z,2.58
2022-09-28T00:19:13.971Z,2.90
2022-09-28T00:21:42.664Z,2.45
2022-09-28T00:24:22.967Z,2.40
2022-09-28T00:26:56.266Z,2.50
2022-09-28T00:29:28.434Z,2.47
2022-09-28T00:32:02.203Z,2.30
2022-09-28T00:34:36.886Z,2.58
2022-09-28T00:37:06.717Z,2.38
2022-09-28T00:39:36.100Z,2.80
2022-09-28T00:42:11.021Z,2.72
2022-09-28T00:44:59.972Z,2.50
2022-09-28T00:47:38.075Z,2.40
2022-09-28T00:50:09.183Z,2.75
2022-09-28T00:52:53.244Z,3.00
2022-09-28T00:55:46.370Z,2.60
2022-09-28T00:58:21.135Z,3.30
2022-09-28T01:00:50.161Z,3.13
2022-09-28T01:03:18.296Z,3.08
2022-09-28T01:05:48.452Z,2.78
2022-09-28T01:08:17.858Z,3.30
2022-09-28T01:10:45.938Z,3.03
2022-09-28T01:13:15.859Z,2.83
2022-09-28T01:16:21.088Z,3.38
2022-09-28T01:19:03.357Z,3.08
2022-09-28T01:21:48.109Z,3.10
2022-09-28T01:24:45.156Z,3.25
2022-09-28T01:27:49.428Z,3.33
2022-09-28T01:30:21.223Z,2.95
2022-09-28T01:33:03.668Z,3.47
2022-09-28T01:35:43.319Z,3.03
2022-09-28T01:40:48.622Z,2.95
2022-09-28T01:43:39.511Z,3.20
2022-09-28T01:46:42.230Z,2.95
2022-09-28T01:49:28.412Z,3.05
2022-09-28T01:52:22.236Z,2.97
2022-09-28T01:55:07.583Z,3.47
2022-09-28T01:58:24.461Z,3.03
2022-09-28T02:01:01.639Z,3.17
2022-09-28T02:03:43.172Z,3.50
2022-09-28T02:06:27.232Z,3.28
2022-09-28T02:09:07.403Z,3.55
2022-09-28T02:11:47.410Z,3.22
2022-09-28T02:14:18.334Z,3.67
2022-09-28T02:16:51.716Z,3.65
2022-09-28T02:19:28.284Z,3.60
2022-09-28T02:22:02.176Z,3.60
2022-09-28T02:24:41.288Z,4.82
2022-09-28T02:27:36.718Z,4.70
2022-09-28T02:30:07.034Z,4.97
2022-09-28T02:32:42.716Z,4.97
2022-09-28T02:35:13.938Z,5.10
2022-09-28T02:37:43.391Z,4.80
2022-09-28T02:40:18.938Z,4.78
2022-09-28T02:43:07.925Z,5.07
2022-09-28T02:46:00.690Z,9.57
2022-09-28T02:48:43.969Z,13.32
2022-09-28T02:51:37.167Z,12.15
2022-09-28T02:54:31.496Z,11.75
2022-09-28T02:57:17.587Z,10.70
2022-09-28T03:00:13.190Z,7.93
2022-09-28T03:02:56.964Z,7.20
2022-09-28T03:05:44.147Z,5.93
2022-09-28T03:08:43.164Z,6.30
2022-09-28T03:11:40.966Z,6.35
2022-09-28T03:14:10.978Z,6.57
2022-09-28T03:16:52.551Z,5.90
2022-09-28T03:19:28.295Z,6.38
2022-09-28T03:21:56.669Z,6.45
2022-09-28T03:24:24.832Z,6.45
2022-09-28T03:26:53.263Z,6.45
2022-09-28T03:29:21.648Z,7.03
2022-09-28T03:31:55.480Z,6.68
2022-09-28T03:34:24.039Z,6.53
2022-09-28T03:36:52.722Z,6.35
2022-09-28T03:39:20.780Z,5.80
2022-09-28T03:41:48.961Z,6.22
2022-09-28T03:46:47.845Z,6.35
2022-09-28T03:49:16.459Z,5.83
2022-09-28T03:51:44.788Z,5.93
2022-09-28T03:54:13.187Z,5.95
2022-09-28T03:56:42.019Z,5.93
2022-09-28T03:59:10.185Z,6.53
2022-09-28T04:01:38.993Z,6.28
2022-09-28T04:04:07.623Z,7.55
2022-09-28T04:06:36.376Z,6.78
2022-09-28T04:09:05.738Z,6.95
2022-09-28T04:11:42.958Z,7.30
2022-09-28T04:14:21.713Z,6.93
2022-09-28T04:16:52.334Z,6.93
2022-09-28T04:19:22.268Z,7.10
2022-09-28T04:22:10.808Z,6.75
2022-09-28T04:24:39.818Z,7.78
2022-09-28T04:27:26.662Z,7.15
2022-09-28T04:29:55.112Z,7.97
2022-09-28T04:32:23.365Z,7.65
2022-09-28T04:34:52.365Z,8.87
2022-09-28T04:37:20.814Z,8.70
2022-09-28T04:39:48.829Z,10.00
2022-09-28T04:42:19.891Z,10.52
2022-09-28T04:44:50.491Z,10.80
2022-09-28T04:47:18.451Z,10.82
2022-09-28T04:49:46.453Z,11.77
2022-09-28T04:52:20.139Z,11.18
2022-09-28T04:54:50.302Z,11.15
2022-09-28T04:57:18.524Z,10.77
2022-09-28T04:59:46.726Z,13.80
2022-09-28T05:02:15.341Z,9.60
2022-09-28T05:05:02.479Z,10.75
2022-09-28T05:07:41.591Z,9.30
2022-09-28T05:10:09.993Z,8.15
2022-09-28T05:12:40.494Z,10.32
2022-09-28T05:15:08.897Z,8.60
2022-09-28T05:17:37.249Z,8.43
2022-09-28T05:20:10.702Z,7.57
2022-09-28T05:22:39.440Z,9.15
2022-09-28T05:25:09.626Z,6.72
2022-09-28T05:27:55.801Z,7.05
2022-09-28T05:30:44.025Z,6.15
2022-09-28T05:33:44.735Z,5.60
2022-09-28T05:36:14.821Z,5.35
2022-09-28T05:38:44.070Z,5.78
2022-09-28T05:41:12.757Z,5.72
2022-09-28T05:43:40.888Z,5.43
2022-09-28T05:46:09.517Z,5.30
2022-09-28T05:48:41.159Z,5.95
2022-09-28T05:51:10.354Z,6.75
2022-09-28T05:53:38.605Z,6.30
2022-09-28T05:56:07.234Z,7.40
2022-09-28T05:58:37.395Z,7.65
2022-09-28T06:01:06.145Z,8.07
2022-09-28T06:03:34.673Z,7.53
2022-09-28T06:06:02.916Z,7.30
2022-09-28T06:08:33.060Z,6.93
2022-09-28T06:11:27.057Z,6.45
2022-09-28T06:13:56.471Z,7.30
2022-09-28T06:16:28.170Z,6.90
2022-09-28T06:18:56.662Z,7.05
2022-09-28T06:21:50.812Z,6.80
2022-09-28T06:24:19.061Z,7.40
2022-09-28T06:26:47.906Z,7.95
2022-09-28T06:29:19.736Z,9.90
2022-09-28T06:31:48.164Z,10.52
2022-09-28T06:34:17.064Z,8.85
2022-09-28T06:36:47.965Z,9.48
2022-09-28T06:39:17.687Z,10.98
2022-09-28T06:41:45.850Z,13.68
2022-09-28T06:44:19.326Z,10.68
2022-09-28T06:47:13.979Z,9.38
2022-09-28T06:49:55.649Z,8.32
2022-09-28T06:52:43.911Z,8.00
2022-09-28T06:55:48.562Z,8.40
2022-09-28T06:58:19.792Z,8.25
2022-09-28T07:00:51.061Z,10.75
2022-09-28T07:03:21.699Z,27.45
2022-09-28T07:05:59.149Z,31.58
2022-09-28T07:08:39.338Z,30.40
2022-09-28T07:11:45.256Z,20.67
2022-09-28T07:14:46.101Z,9.25
2022-09-28T07:17:14.790Z,11.18
2022-09-28T07:19:44.656Z,9.65
2022-09-28T07:22:18.594Z,11.95
2022-09-28T07:24:48.817Z,10.10
2022-09-28T07:27:39.790Z,9.45
2022-09-28T07:30:34.395Z,9.05
2022-09-28T07:33:19.439Z,9.43
2022-09-28T07:36:07.744Z,9.27
2022-09-28T07:38:36.128Z,10.52
2022-09-28T07:41:14.298Z,9.95
2022-09-28T07:43:49.920Z,11.63
2022-09-28T07:46:18.496Z,11.20
2022-09-28T07:48:56.597Z,10.70
2022-09-28T07:51:34.654Z,10.00
2022-09-28T07:54:23.087Z,8.95
2022-09-28T07:57:12.009Z,9.75
2022-09-28T08:00:09.021Z,9.23
2022-09-28T08:02:45.239Z,19.58
2022-09-28T08:05:18.439Z,10.30
2022-09-28T08:07:46.908Z,9.27
2022-09-28T08:10:15.128Z,9.15
2022-09-28T08:13:06.398Z,10.85
2022-09-28T08:15:55.687Z,10.10
2022-09-28T08:18:42.375Z,11.32
2022-09-28T08:21:30.074Z,9.55
2022-09-28T08:23:58.787Z,8.88
2022-09-28T08:26:28.996Z,8.15
2022-09-28T08:31:48.491Z,10.23
2022-09-28T08:34:40.781Z,10.10
2022-09-28T08:37:42.431Z,14.70
2022-09-28T08:40:25.138Z,18.67
2022-09-28T08:43:15.569Z,29.27
2022-09-28T08:46:11.350Z,10.35
2022-09-28T08:52:16.454Z,7.60
2022-09-28T08:55:19.105Z,8.43
2022-09-28T08:58:18.767Z,8.35
2022-09-28T09:00:52.943Z,8.10
2022-09-28T09:03:32.723Z,8.95
2022-09-28T09:06:32.188Z,7.90
2022-09-28T09:09:50.239Z,8.60
2022-09-28T09:12:23.397Z,7.90
2022-09-28T09:15:01.896Z,7.20
2022-09-28T09:18:09.300Z,7.10
2022-09-28T09:21:35.916Z,7.78
2022-09-28T09:24:50.176Z,7.28
2022-09-28T09:27:42.167Z,7.15
2022-09-28T09:30:22.109Z,7.40
2022-09-28T09:33:17.573Z,11.48
2022-09-28T09:36:28.242Z,6.70
2022-09-28T09:39:38.408Z,6.47
2022-09-28T09:43:11.274Z,6.68
2022-09-28T09:46:08.998Z,5.40
2022-09-28T09:49:06.037Z,5.20
2022-09-28T09:51:59.874Z,5.80
2022-09-28T09:54:38.251Z,6.28
2022-09-28T09:57:26.006Z,6.10
2022-09-28T10:00:15.037Z,6.10
2022-09-28T10:02:51.043Z,5.35
2022-09-28T10:05:36.514Z,4.93
2022-09-28T10:08:21.103Z,5.43
2022-09-28T10:11:03.143Z,5.63
2022-09-28T10:13:34.677Z,5.60
2022-09-28T10:16:08.829Z,15.48
2022-09-28T10:18:46.445Z,4.57
2022-09-28T10:21:42.486Z,5.57
2022-09-28T10:24:38.601Z,7.55
2022-09-28T10:27:17.354Z,5.10
2022-09-28T10:30:09.722Z,4.88
2022-09-28T10:32:44.007Z,4.03
2022-09-28T10:35:24.141Z,4.43
2022-09-28T10:38:07.032Z,4.13
2022-09-28T10:40:57.170Z,4.47
2022-09-28T10:44:06.494Z,5.40
2022-09-28T10:46:45.019Z,3.80
2022-09-28T10:49:18.974Z,3.13
2022-09-28T10:51:57.643Z,3.75
2022-09-28T10:54:35.096Z,3.63
2022-09-28T10:57:23.852Z,6.32
2022-09-28T10:59:58.446Z,3.60
2022-09-28T11:02:38.376Z,2.88
2022-09-28T11:05:22.941Z,3.03
2022-09-28T11:07:56.152Z,2.50
2022-09-28T11:10:34.095Z,2.30
2022-09-28T11:13:29.363Z,2.75
2022-09-28T11:16:05.219Z,1.90
2022-09-28T11:18:36.559Z,2.25
2022-09-28T11:21:15.328Z,2.45
2022-09-28T11:24:02.090Z,2.10
2022-09-28T11:27:00.251Z,2.08
2022-09-28T11:29:52.614Z,1.48
2022-09-28T11:32:47.346Z,1.75
2022-09-28T11:35:47.202Z,2.38
2022-09-28T11:38:25.850Z,1.30
2022-09-28T11:41:41.082Z,1.40
2022-09-28T11:44:36.326Z,1.45
2022-09-28T11:47:40.754Z,1.58
2022-09-28T11:50:40.838Z,1.65
2022-09-28T11:53:35.155Z,3.40
2022-09-28T11:56:23.014Z,1.25
2022-09-28T11:58:59.621Z,2.28
2022-09-28T12:01:55.816Z,2.38
2022-09-28T12:04:43.699Z,3.70
2022-09-28T12:07:25.750Z,2.75
2022-09-28T12:10:21.110Z,2.07
2022-09-28T12:13:05.292Z,4.30
2022-09-28T12:16:17.186Z,2.45
2022-09-28T12:19:15.405Z,3.90
2022-09-28T12:21:54.006Z,2.88
2022-09-28T12:24:36.989Z,2.03
2022-09-28T12:27:21.062Z,1.95
2022-09-28T12:29:59.401Z,2.53
2022-09-28T12:32:48.571Z,2.38
2022-09-28T12:35:40.370Z,4.70
2022-09-28T12:38:14.327Z,4.03
2022-09-28T12:41:16.974Z,4.53
2022-09-28T12:43:57.081Z,1.90
2022-09-28T12:46:46.323Z,2.05
2022-09-28T12:50:37.696Z,2.10
2022-09-28T12:53:08.597Z,7.13
2022-09-28T12:55:58.298Z,2.83
2022-09-28T12:58:38.978Z,4.25
2022-09-28T13:01:23.612Z,1.60
2022-09-28T13:04:00.434Z,1.60
2022-09-28T13:06:53.109Z,4.00
2022-09-28T13:09:26.506Z,3.20
2022-09-28T13:12:03.707Z,4.13
2022-09-28T13:14:54.553Z,3.53
2022-09-28T13:17:42.934Z,2.00
2022-09-28T13:20:53.373Z,3.35
2022-09-28T13:24:04.324Z,2.33
2022-09-28T13:26:42.277Z,0.90
2022-09-28T13:29:18.237Z,1.88
2022-09-28T13:31:54.643Z,6.97
2022-09-28T13:34:27.880Z,1.20
2022-09-28T13:37:24.355Z,3.60
2022-09-28T13:39:57.003Z,1.52
2022-09-28T13:42:53.263Z,5.45
2022-09-28T13:45:21.317Z,14.50
2022-09-28T13:47:56.600Z,1.52
2022-09-28T13:50:46.035Z,1.15
2022-09-28T13:53:42.305Z,1.70
2022-09-28T13:56:34.764Z,3.13
2022-09-28T13:59:15.909Z,3.22
2022-09-28T14:02:04.188Z,2.25
2022-09-28T14:04:56.855Z,3.63
2022-09-28T14:08:27.130Z,7.30
2022-09-28T14:10:58.425Z,4.43
2022-09-28T14:13:46.498Z,4.93
2022-09-28T14:16:23.934Z,5.93
2022-09-28T14:18:58.289Z,5.93
2022-09-28T14:21:48.185Z,5.88
2022-09-28T14:24:39.854Z,6.47
2022-09-28T14:27:13.983Z,3.15
2022-09-28T14:29:42.827Z,2.85
2022-09-28T14:32:11.207Z,2.03
2022-09-28T14:34:42.838Z,3.83
2022-09-28T14:37:51.498Z,9.40
2022-09-28T14:40:49.401Z,8.32
2022-09-28T14:43:42.456Z,10.93
2022-09-28T14:46:11.526Z,22.15
2022-09-28T14:48:57.939Z,4.78
2022-09-28T14:51:27.039Z,14.32
2022-09-28T14:54:08.043Z,11.77
2022-09-28T14:56:40.883Z,8.85
2022-09-28T14:59:17.560Z,4.10
2022-09-28T15:02:15.675Z,4.07
2022-09-28T15:04:50.716Z,3.90
2022-09-28T15:07:44.072Z,6.75
2022-09-28T15:10:35.796Z,11.40
2022-09-28T15:13:16.452Z,12.25
2022-09-28T15:15:50.630Z,5.00
2022-09-28T15:18:44.060Z,6.90
2022-09-28T15:21:13.117Z,6.32
2022-09-28T15:23:44.277Z,5.55
2022-09-28T15:26:28.361Z,5.00
2022-09-28T15:28:58.141Z,8.30
2022-09-28T15:31:30.575Z,5.22
2022-09-28T15:34:17.595Z,7.43
2022-09-28T15:36:47.144Z,11.30
2022-09-28T15:39:31.423Z,9.75
2022-09-28T15:42:01.716Z,3.53
2022-09-28T15:44:44.791Z,3.97
2022-09-28T15:47:25.674Z,12.60
2022-09-28T15:49:59.203Z,12.88
2022-09-28T15:52:36.497Z,10.98
2022-09-28T15:55:22.288Z,12.15
2022-09-28T15:57:50.885Z,6.13
2022-09-28T16:00:23.458Z,4.63
2022-09-28T16:03:23.197Z,8.82
2022-09-28T16:06:09.629Z,4.25
2022-09-28T16:08:42.901Z,3.40
2022-09-28T16:11:39.283Z,5.97
2022-09-28T16:14:19.697Z,2.70
2022-09-28T16:16:50.605Z,2.67
2022-09-28T16:19:31.063Z,2.58
2022-09-28T16:22:02.949Z,2.13
2022-09-28T16:24:35.696Z,2.40
2022-09-28T16:27:07.987Z,1.70
2022-09-28T16:29:40.380Z,1.90
2022-09-28T16:32:27.580Z,4.45
2022-09-28T16:35:11.019Z,4.63
2022-09-28T16:37:43.763Z,4.70
2022-09-28T16:40:12.989Z,5.63
2022-09-28T16:42:49.079Z,7.60
2022-09-28T16:45:43.427Z,11.60
2022-09-28T16:48:20.801Z,45.20
2022-09-28T16:50:48.934Z,68.90
2022-09-28T16:53:36.381Z,167.02
2022-09-28T16:56:05.960Z,136.60
2022-09-28T16:58:36.288Z,108.65
2022-09-28T17:01:06.716Z,77.07
2022-09-28T17:03:36.982Z,149.27
2022-09-28T17:06:12.575Z,73.38
2022-09-28T17:08:41.809Z,74.25
2022-09-28T17:11:23.763Z,59.30
2022-09-28T17:13:59.172Z,49.80
2022-09-28T17:19:25.629Z,46.17
2022-09-28T17:21:54.134Z,39.58
2022-09-28T17:24:22.419Z,54.33
2022-09-28T17:26:51.997Z,89.20
2022-09-28T17:29:20.567Z,81.97
2022-09-28T17:31:49.201Z,83.80
2022-09-28T17:34:18.454Z,91.40
2022-09-28T17:36:47.976Z,87.10
2022-09-28T17:39:19.168Z,87.32
2022-09-28T17:41:47.816Z,75.25
2022-09-28T17:44:16.603Z,51.88
2022-09-28T17:46:48.750Z,61.70
2022-09-28T17:49:18.440Z,46.75
2022-09-28T17:51:47.412Z,47.85
2022-09-28T17:54:19.461Z,51.88
2022-09-28T17:56:47.737Z,54.55
2022-09-28T17:59:18.993Z,41.92
2022-09-28T18:01:48.647Z,51.55
2022-09-28T18:04:39.759Z,53.45
2022-09-28T18:07:05.629Z,89.15
2022-09-28T18:09:34.075Z,81.82
2022-09-28T18:12:05.051Z,79.75
2022-09-28T18:14:34.078Z,75.88
2022-09-28T18:17:03.244Z,83.27
2022-09-28T18:19:32.487Z,81.10
2022-09-28T18:22:02.314Z,95.00
2022-09-28T18:24:33.289Z,97.28
2022-09-28T18:27:03.444Z,91.07
2022-09-28T18:29:37.699Z,56.83
2022-09-28T18:32:10.548Z,40.95
2022-09-28T18:34:39.677Z,39.05
2022-09-28T18:37:08.230Z,61.55
2022-09-28T18:39:36.831Z,70.53
2022-09-28T18:42:05.396Z,74.68
2022-09-28T18:44:34.280Z,64.97
2022-09-28T18:47:02.891Z,62.43
2022-09-28T18:49:33.675Z,60.88
2022-09-28T18:52:01.974Z,47.03
2022-09-28T18:54:30.240Z,42.50
2022-09-28T18:56:58.954Z,39.00
2022-09-28T18:59:27.547Z,38.75
2022-09-28T19:01:56.019Z,51.72
2022-09-28T19:04:24.813Z,55.65
2022-09-28T19:06:54.646Z,54.85
2022-09-28T19:09:25.204Z,63.17
2022-09-28T19:11:54.643Z,61.58
2022-09-28T19:14:22.951Z,57.40
2022-09-28T19:16:52.777Z,48.08
2022-09-28T19:19:22.550Z,42.15
2022-09-28T19:21:50.722Z,43.40
2022-09-28T19:24:20.099Z,48.05
2022-09-28T19:26:49.847Z,47.65
2022-09-28T19:29:18.565Z,71.90
2022-09-28T19:31:46.973Z,80.60
2022-09-28T19:34:16.095Z,68.23
2022-09-28T19:36:44.503Z,61.05
2022-09-28T19:39:16.068Z,46.17
2022-09-28T19:41:51.342Z,37.60
2022-09-28T19:44:25.852Z,46.20
2022-09-28T19:47:00.837Z,39.10
2022-09-28T19:49:33.443Z,28.60
2022-09-28T19:52:19.215Z,27.80
2022-09-28T19:54:57.048Z,32.83
2022-09-28T19:57:28.410Z,38.17
2022-09-28T20:00:02.418Z,49.40
2022-09-28T20:02:36.363Z,48.03
2022-09-28T20:05:05.924Z,44.83
2022-09-28T20:07:36.296Z,46.35
2022-09-28T20:10:05.668Z,65.00
2022-09-28T20:12:34.721Z,61.60
2022-09-28T20:15:03.013Z,62.85
2022-09-28T20:17:32.722Z,58.92
2022-09-28T20:20:01.924Z,68.47
2022-09-28T20:22:31.494Z,51.55
2022-09-28T20:25:02.768Z,55.90
2022-09-28T20:27:30.829Z,57.92
2022-09-28T20:29:59.944Z,57.90
2022-09-28T20:32:31.894Z,47.75
2022-09-28T20:35:00.242Z,42.88
2022-09-28T20:37:28.720Z,46.78
2022-09-28T20:39:58.125Z,16.35
2022-09-28T20:42:26.756Z,16.50
2022-09-28T20:44:54.731Z,20.55
2022-09-28T20:47:23.127Z,18.83
2022-09-28T20:49:51.339Z,24.85
2022-09-28T20:52:19.965Z,24.77
2022-09-28T20:54:48.239Z,18.95
2022-09-28T20:57:19.170Z,15.65
2022-09-28T20:59:53.659Z,15.60
2022-09-28T21:02:23.262Z,30.45
2022-09-28T21:04:51.669Z,27.13
2022-09-28T21:07:19.844Z,26.88
2022-09-28T21:09:48.503Z,22.70
2022-09-28T21:12:17.226Z,15.50
2022-09-28T21:14:45.299Z,14.55
2022-09-28T21:17:13.641Z,18.77
2022-09-28T21:19:41.755Z,17.80
2022-09-28T21:22:09.790Z,17.70
2022-09-28T21:24:38.027Z,18.42
2022-09-28T21:27:06.064Z,22.55
2022-09-28T21:29:34.093Z,22.20
2022-09-28T21:32:02.549Z,22.00
2022-09-28T21:34:30.677Z,16.65
2022-09-28T21:36:58.901Z,15.18
2022-09-28T21:39:27.031Z,15.15
2022-09-28T21:41:55.095Z,15.38
2022-09-28T21:44:23.259Z,14.05
2022-09-28T21:46:51.744Z,13.45
2022-09-28T21:49:19.787Z,15.88
2022-09-28T21:51:47.963Z,15.65
2022-09-28T21:54:16.283Z,15.43
2022-09-28T21:56:44.465Z,15.48
2022-09-28T21:59:12.531Z,15.07
2022-09-28T22:01:42.626Z,13.93
2022-09-28T22:06:39.811Z,12.68
2022-09-28T22:09:08.441Z,12.55
2022-09-28T22:11:36.760Z,12.43
2022-09-28T22:14:04.821Z,12.32
2022-09-28T22:16:33.026Z,12.38
2022-09-28T22:19:01.166Z,12.00
2022-09-28T22:21:32.745Z,12.25
2022-09-28T22:24:03.507Z,11.70
2022-09-28T22:26:34.503Z,12.13
2022-09-28T22:29:06.214Z,13.45
2022-09-28T22:31:37.194Z,13.77
2022-09-28T22:34:06.907Z,14.52
2022-09-28T22:36:35.624Z,10.18
2022-09-28T22:39:04.803Z,12.82
2022-09-28T22:41:33.169Z,12.95
2022-09-28T22:44:01.346Z,13.50
2022-09-28T22:46:32.252Z,10.32
2022-09-28T22:49:01.185Z,9.75
2022-09-28T22:51:31.123Z,9.73
2022-09-28T22:53:59.996Z,9.98
2022-09-28T22:56:28.848Z,10.00
2022-09-28T22:58:57.388Z,9.35
2022-09-28T23:01:30.754Z,9.23
2022-09-28T23:03:59.630Z,11.60
2022-09-28T23:06:30.402Z,11.85
2022-09-28T23:08:58.611Z,8.50
2022-09-28T23:11:27.424Z,7.65
2022-09-28T23:13:57.884Z,8.40
2022-09-28T23:16:26.899Z,8.38
2022-09-28T23:18:55.868Z,7.90
2022-09-28T23:21:26.163Z,9.63
2022-09-28T23:24:01.712Z,8.55
2022-09-28T23:26:33.240Z,8.38
2022-09-28T23:29:01.310Z,7.95
2022-09-28T23:31:33.228Z,7.68
2022-09-28T23:34:06.520Z,7.05
2022-09-28T23:36:35.104Z,7.45
2022-09-28T23:39:03.576Z,6.70
2022-09-28T23:41:32.995Z,6.88
2022-09-28T23:44:01.146Z,6.85
2022-09-28T23:46:29.329Z,7.00
2022-09-28T23:48:57.503Z,6.00
2022-09-28T23:51:25.550Z,6.25
2022-09-28T23:53:53.705Z,6.47
2022-09-28T23:56:21.645Z,6.05
2022-09-28T23:58:50.082Z,6.47
